Impacts METAR Board
IDs:

KCVG - Cincinnati Intl, KY, US

Updated at: 0700 UTC 21 Sep 2018
Potential Impact None Slight Moderate High
Time 20/19Z 20/20Z 20/21Z 20/22Z 20/23Z 21/00Z 21/01Z 21/02Z 21/03Z 21/04Z 21/05Z 21/06Z 21/07Z
Temp89 89 89 88 85 79 79 79 80 79 77 76 75
Dewpt72 71 70 70 71 71 70 70 70 69 69 69 70
Altim30.06 30.04 30.03 30.02 30.02 30.02 30.02 30.02 30.02 30.02 30.02 30.02 30.03
VIS10 10 10 10 10 10 10 10 10 10 10 10 10
CIG-- -- -- -- -- -- -- -- -- -- -- -- --
CoverSCTFEWFEWSCTFEWSCTFEWCLRCLRCLRCLRCLRCLR
FltCatVFRVFRVFRVFRVFRVFRVFRVFRVFRVFRVFRVFRVFR
WX--------------------------
WDir250190210180190170170190190190190190190
WSpd6 11 9 7 6 7 7 7 9 7 8 8 6
WGst-- -- -- -- -- -- -- -- -- -- -- -- --
Raw hourly METARs
KCVG 201852Z 25006KT 10SM SCT042 32/22 A3006 RMK AO2 SLP165 MDT CU ALQDS T03170222
KCVG 201952Z 19011KT 10SM FEW047 32/22 A3004 RMK AO2 SLP159 T03170217
KCVG 202052Z 21009KT 10SM FEW050 FEW090 32/21 A3003 RMK AO2 SLP157 T03170211 56015
KCVG 202152Z 18007KT 10SM FEW050 SCT150 31/21 A3002 RMK AO2 SLP154 T03110211
KCVG 202252Z 19006KT 10SM FEW150 29/22 A3002 RMK AO2 SLP154 T02940217
KCVG 202352Z 17007KT 10SM SCT150 26/22 A3002 RMK AO2 SLP155 T02610217 10322 20261 55003
KCVG 210052Z 17007KT 10SM FEW150 26/21 A3002 RMK AO2 SLP154 T02610211
KCVG 210152Z 19007KT 10SM CLR 26/21 A3002 RMK AO2 SLP154 T02610211
KCVG 210252Z 19009KT 10SM CLR 27/21 A3002 RMK AO2 SLP151 T02670211 58001
KCVG 210352Z 19007KT 10SM CLR 26/21 A3002 RMK AO2 SLP154 T02610206
KCVG 210452Z 19008KT 10SM CLR 25/21 A3002 RMK AO2 SLP154 T02500206 403220206
KCVG 210552Z 19008KT 10SM CLR 24/21 A3002 RMK AO2 SLP155 T02440206 10267 20244 51003
KCVG 210652Z 19006KT 10SM CLR 24/21 A3003 RMK AO2 SLP155 T02390211



Page loaded:  07:32 UTC  |   12:32 AM Pacific  |   01:32 AM Mountain  |   02:32 AM Central  |   03:32 AM Eastern

 

ADVISORIES

FORECASTS

FORECASTS

OBSERVATIONS

USER TOOLS

ABOUT US